Monday, July 28, 2014
04:20 UTC
  |  Log In   |  Register Free
Airport Search:

Lincoln Airport
(KLNK)

Lincoln Airport Diagram
No Airport Diagram Available

FAA data valid effective July 24, 2014 until September 18, 2014 (unless otherwise noted).

 
 
 
 
 
 
 
 
 
 
 
 
 
 

Current Aviation Weather for Lincoln Airport (KLNK)

The most recent METAR observation for KLNK was updated at: 0254 UTC
METAR Summary (Translated METAR)
KLNK
280254Z 35004KT 10SM CLR 22/13 A3018 RMK AO2 SLP209 T02170133 53016
KBIE
(33 nm SE from KLNK)
280335Z AUTO 04004KT 10SM CLR 19/15 A3018 RMK AO2 T01880151
TAF Summary (Translated TAF)
KLNK
271720Z 2718/2818 33016G23KT P6SM FEW120 FM280000 35005KT P6SM SCT060 FM281600 34010KT P6SM SCT060
  Airport Weather Conditions for KLNK

 Current Weather at LNK
71° F
Fair
Northwest winds at 6.9 mph
LNK NOAA Radar

Pressure: 30.19 in
Humidity: 61%
Wind: Northwest at 6.9 MPH (6 KT)
Dew Point: 57.0°F
Visibility: 10.00 mi


Airport Weather Forecast for KLNK

Translated METAR and TAF for KLNK
Translated METAR for KLNK (0414 UTC 28 July 2014)
found at http://aviationweather.gov/adds/metars/
 
METAR text: KLNK 280354Z 33006KT 10SM CLR 22/14 A3019 RMK AO2 SLP214 T02170139
Conditions at: KLNK (LINCOLN , NE, US) observed 0354 UTC 28 July 2014
Temperature: 21.7°C (71°F)
Dewpoint: 13.9°C (57°F) [RH = 61%]
Pressure (altimeter): 30.19 inches Hg (1022.4 mb)
[Sea-level pressure: 1021.4 mb]
Winds: from the NNW (330 degrees) at 7 MPH (6 knots; 3.1 m/s)
Visibility: 10 or more miles (16+ km)
Ceiling: at least 12,000 feet AGL
Clouds: sky clear below 12,000 feet AGL
Weather: no significant weather observed at this time
Translated TAF for KLNK
Forecast for: KLNK (LINCOLN , NE, US)
TAF Text: KLNK 272320Z 2800/2824 33016G23KT P6SM SCT050
Forecast period: 0000 to 0200 UTC 28 July 2014
Forecast type: FROM: standard forecast or significant change
Winds: from the NNW (330 degrees) at 18 MPH (16 knots; 8.3 m/s)
gusting to 26 MPH (23 knots; 12.0 m/s)
Visibility: 6 or more miles (10+ km)
Clouds: scattered clouds at 5000 feet AGL
Weather: no significant weather forecast for this period
TAF Text: FM280200 35005KT P6SM SKC
Forecast period: 0200 to 1600 UTC 28 July 2014
Forecast type: FROM: standard forecast or significant change
Winds: from the N (350 degrees) at 6 MPH (5 knots; 2.6 m/s)
Visibility: 6 or more miles (10+ km)
Clouds: clear skies
Weather: no significant weather forecast for this period
TAF Text: FM281600 35011KT P6SM SCT050
Forecast period: 1600 UTC 28 July 2014 to 0000 UTC 29 July 2014
Forecast type: FROM: standard forecast or significant change
Winds: from the N (350 degrees) at 13 MPH (11 knots; 5.7 m/s)
Visibility: 6 or more miles (10+ km)
Clouds: scattered clouds at 5000 feet AGL
Weather: no significant weather forecast for this period

Find All Airport Services Find A Hotel Find A Rental Car Find A Golf Course Find A Restaurant $100 Hamburger



FBO's on the Field
FBO Company Facility Photos Services Transportation Aviation Fuel Prices: Prices include tax
Catering Weather Repair Courtesy Rental Type 100LL JetA JetA+ MOGAS 8087
 
Duncan Aviation

This FBO has not yet been rated
FS:Avfuel
Last Updated: Jul-22
Login to update fuel prices
SS:
Contact Duncan AviationMore FBO Information
 
Silverhawk Aviation

This FBO has not yet been rated
FS:Phillips66
Last Updated: Jul-22
Login to update fuel prices
SS:
Contact Silverhawk AviationMore FBO Information
 
Add another FBO Facility Photos Catering Weather Repair Courtesy Rental Type 100LL JetA JetA+ MOGAS 8087
Services Transportation Aviation Fuel Prices: Prices include tax


GlobalAir.com Airport Resource Center model-print
model-print
model-print
model-print